Split Lake, Canada
Current Conditions -  °F | °C
As of 9:00 PM on Monday 20 Oct 2014 (Local Time) from CYGX Reporting Station
Overcast Overcast  
Wind Chill: 30°   Ceiling: 1300
Heat Index: 37°   Visibility: 15mi
Dew Point: 34°   Wind: 10mph
Humidity: 87%   Direction: 170°S
Pressure: 30.04"   Gusts: 17mph
Location:  56.25°N, 96.1°W
Report Text: CYGX 210200Z 17009G15KT 15SM OVC013 03/01 A3004 RMK SC8 SLP181
Loading
Personal Weather Stations






























Interactive Weather Map
Tropical Storm Tracking
New forecast layout! Learn more

10-Day Weather Forecast

Advertisements
Track Severe Weather on mobile